KJAC/JAC METAR and TAF weather

Enter ICAO airport designator
Station Type Date Time Source
KJAC METAR 2020/01/20 12:56 UTC NOAA

KJAC 201256Z AUTO 03007KT 10SM CLR M19/M21 A3044 RMK AO2 SNB25E39 SLP427 P0000 T11891211 FZRANO


Station Type Date Time Source
KJAC Decoded METAR 2020/01/20 12:56 UTC NOAA

Jackson, Jackson Hole Airport, WY, United States (KJAC) 43-36N 110-44W
Jan 20, 2020 - 07:56 AM EST / 2020.01.20 1256 UTC
Wind: from the NNE (030 degrees) at 8 MPH (7 KT):0
Visibility: 10 mile(s):0
Sky conditions: clear
Precipitation last hour: A trace
Temperature: -2.0 F (-18.9 C)
Windchill: -16 F (-27 C):2
Dew Point: -6.0 F (-21.1 C)
Relative Humidity: 82%
Pressure (altimeter): 30.44 in. Hg (1030 hPa)
ob: KJAC 201256Z AUTO 03007KT 10SM CLR M19/M21 A3044 RMK AO2 SNB25E39 SLP427 P0000 T11891211 FZRANO
cycle: 13

Station Type Date Time Source
KJAC TAF 2020/01/20 12:24 UTC NOAA

TAF KJAC 201122Z 2012/2112 01007KT P6SM SCT200
FM201500 00000KT P6SM BKN200
FM210200 VRB05KT P6SM VCSH SCT040 BKN080
FM210600 20006KT P6SM -SHSN SCT015 OVC030

Example: see airport list